Time;durP1;ratioP1;P1;durP2;ratioP2;P2;SDS_P1;SDS_P2;PMS_P1;PMS_P2;Temp;Humidity;BMP_temperature;BMP_pressure;BME280_temperature;BME280_humidity;BME280_pressure;Samples;Min_cycle;Max_cycle;Signal;HPM_P1;HPM_P2
2023/09/27 00:02:15;;;;;;;22.27;11.83;;;;;;;;;;10450796;28;20493;-80
2023/09/27 00:07:18;;;;;;;21.48;12.07;;;;;;;;;;10450786;28;20457;-80
2023/09/27 00:12:22;;;;;;;20.98;11.48;;;;;;;;;;10457406;28;20423;-80
2023/09/27 00:17:25;;;;;;;18.40;10.70;;;;;;;;;;10451531;28;20487;-81
2023/09/27 00:22:28;;;;;;;20.67;11.48;;;;;;;;;;10449760;28;20425;-81
2023/09/27 00:27:32;;;;;;;19.13;10.50;;;;;;;;;;10450688;28;20428;-80
2023/09/27 00:32:35;;;;;;;20.33;11.07;;;;;;;;;;10442797;28;20425;-80
2023/09/27 00:37:37;;;;;;;20.53;11.20;;;;;;;;;;10435930;28;20450;-82
2023/09/27 00:42:42;;;;;;;21.10;11.77;;;;;;;;;;10437879;28;20429;-80
2023/09/27 00:47:45;;;;;;;22.33;11.93;;;;;;;;;;10443769;28;20425;-80
2023/09/27 00:52:48;;;;;;;22.55;11.70;;;;;;;;;;10428692;28;20520;-81
2023/09/27 00:57:54;;;;;;;24.20;12.27;;;;;;;;;;10442769;28;20767;-80
2023/09/27 01:02:57;;;;;;;21.35;12.07;;;;;;;;;;10435321;28;20512;-79
2023/09/27 01:08:00;;;;;;;22.05;12.00;;;;;;;;;;10444086;28;20521;-80
2023/09/27 01:13:05;;;;;;;21.67;12.10;;;;;;;;;;10441930;28;20422;-81
2023/09/27 01:18:07;;;;;;;22.02;12.30;;;;;;;;;;10440261;28;20479;-80
2023/09/27 01:23:11;;;;;;;20.20;11.40;;;;;;;;;;10442308;28;20433;-80
2023/09/27 01:28:14;;;;;;;20.27;11.23;;;;;;;;;;10440953;28;20426;-81
2023/09/27 01:33:17;;;;;;;20.88;11.77;;;;;;;;;;10434534;28;20492;-80
2023/09/27 01:38:21;;;;;;;21.83;11.48;;;;;;;;;;10441147;28;20512;-80
2023/09/27 01:43:24;;;;;;;19.40;11.27;;;;;;;;;;10441171;28;20422;-81
2023/09/27 01:48:26;;;;;;;18.55;10.13;;;;;;;;;;10444738;28;20479;-80
2023/09/27 01:53:31;;;;;;;18.30;9.90;;;;;;;;;;10433539;28;20461;-80
2023/09/27 01:58:33;;;;;;;16.73;9.63;;;;;;;;;;10440955;28;20437;-81
2023/09/27 02:03:36;;;;;;;17.52;9.80;;;;;;;;;;10433945;28;20504;-79
2023/09/27 02:08:40;;;;;;;18.13;9.70;;;;;;;;;;10440588;28;20510;-79
2023/09/27 02:13:43;;;;;;;18.40;9.57;;;;;;;;;;10432957;28;20417;-79
2023/09/27 02:18:45;;;;;;;15.95;8.93;;;;;;;;;;10437140;28;20438;-80
2023/09/27 02:23:49;;;;;;;14.90;8.90;;;;;;;;;;10434203;28;20950;-79
2023/09/27 02:28:52;;;;;;;15.00;8.93;;;;;;;;;;10442407;28;20431;-80
2023/09/27 02:33:56;;;;;;;17.30;9.13;;;;;;;;;;10438399;28;20434;-79
2023/09/27 02:39:00;;;;;;;13.82;7.85;;;;;;;;;;10435647;28;20957;-79
2023/09/27 02:44:03;;;;;;;17.67;8.82;;;;;;;;;;10437984;28;20425;-79
2023/09/27 02:49:06;;;;;;;11.90;7.00;;;;;;;;;;10437273;28;20436;-79
2023/09/27 02:54:11;;;;;;;14.17;8.07;;;;;;;;;;10436173;28;20501;-79
2023/09/27 02:59:14;;;;;;;10.93;7.03;;;;;;;;;;10435072;28;20895;-79
2023/09/27 03:04:17;;;;;;;11.60;6.00;;;;;;;;;;10436449;28;20480;-80
2023/09/27 03:09:21;;;;;;;11.65;7.32;;;;;;;;;;10434733;28;20460;-81
2023/09/27 03:14:24;;;;;;;12.27;7.13;;;;;;;;;;10441481;28;20420;-80
2023/09/27 03:19:27;;;;;;;13.88;7.63;;;;;;;;;;10437652;28;20441;-79
2023/09/27 03:24:34;;;;;;;12.32;7.55;;;;;;;;;;10466163;28;20473;-78
2023/09/27 03:29:36;;;;;;;14.90;8.10;;;;;;;;;;10449917;28;20431;-80
2023/09/27 03:34:39;;;;;;;15.77;8.52;;;;;;;;;;10451184;28;20443;-80
2023/09/27 03:39:43;;;;;;;14.68;8.63;;;;;;;;;;10439836;28;20938;-80
2023/09/27 03:44:47;;;;;;;12.40;8.13;;;;;;;;;;10452126;28;20499;-81
2023/09/27 03:49:49;;;;;;;12.40;7.22;;;;;;;;;;10445301;28;20915;-79
2023/09/27 03:54:53;;;;;;;12.10;7.50;;;;;;;;;;10444127;28;20436;-80
2023/09/27 03:59:57;;;;;;;13.55;7.50;;;;;;;;;;10453593;28;20423;-81
2023/09/27 04:04:59;;;;;;;11.97;7.27;;;;;;;;;;10447149;28;20540;-80
2023/09/27 04:10:04;;;;;;;12.30;7.43;;;;;;;;;;10445626;28;20442;-80
2023/09/27 04:15:08;;;;;;;12.65;7.50;;;;;;;;;;10438394;28;20973;-80
2023/09/27 04:20:16;;;;;;;13.37;7.80;;;;;;;;;;10422015;28;20637;-81
2023/09/27 04:25:20;;;;;;;13.82;7.97;;;;;;;;;;10440714;28;20760;-82
2023/09/27 04:30:24;;;;;;;14.65;7.95;;;;;;;;;;10440179;28;20800;-81
2023/09/27 04:35:27;;;;;;;13.82;8.15;;;;;;;;;;10438447;28;20489;-81
2023/09/27 04:40:31;;;;;;;14.38;7.82;;;;;;;;;;10437595;28;20471;-82
2023/09/27 04:45:34;;;;;;;14.57;8.65;;;;;;;;;;10438369;28;20483;-81
2023/09/27 04:50:36;;;;;;;15.85;8.85;;;;;;;;;;10443442;28;20421;-81
2023/09/27 04:55:41;;;;;;;17.25;8.45;;;;;;;;;;10440628;28;20460;-80
2023/09/27 05:00:43;;;;;;;15.20;7.90;;;;;;;;;;10445102;28;20499;-81
2023/09/27 05:05:46;;;;;;;16.70;8.45;;;;;;;;;;10438532;28;20455;-81
2023/09/27 05:10:50;;;;;;;15.67;8.43;;;;;;;;;;10441572;28;20433;-81
2023/09/27 05:15:53;;;;;;;15.20;8.20;;;;;;;;;;10437470;28;21106;-81
2023/09/27 05:20:56;;;;;;;16.23;8.40;;;;;;;;;;10441274;28;20527;-81
2023/09/27 05:26:00;;;;;;;13.98;7.47;;;;;;;;;;10440885;28;20483;-81
2023/09/27 05:31:04;;;;;;;12.10;7.00;;;;;;;;;;10438397;28;20431;-80
2023/09/27 05:36:07;;;;;;;11.93;6.95;;;;;;;;;;10440667;28;20433;-81
2023/09/27 05:41:10;;;;;;;13.25;7.18;;;;;;;;;;10432001;28;20440;-82
2023/09/27 05:46:13;;;;;;;11.53;6.77;;;;;;;;;;10438214;28;20590;-80
2023/09/27 05:51:16;;;;;;;11.18;6.63;;;;;;;;;;10441866;28;20490;-79
2023/09/27 05:56:20;;;;;;;11.43;5.80;;;;;;;;;;10439964;28;20546;-80
2023/09/27 06:01:23;;;;;;;10.13;5.50;;;;;;;;;;10438502;28;20473;-80
2023/09/27 06:06:26;;;;;;;8.57;4.88;;;;;;;;;;10432738;28;20445;-81
2023/09/27 06:11:30;;;;;;;8.60;4.47;;;;;;;;;;10436865;28;20552;-80
2023/09/27 06:16:33;;;;;;;9.48;4.55;;;;;;;;;;10435971;28;20441;-79
2023/09/27 06:21:35;;;;;;;10.40;4.60;;;;;;;;;;10431125;28;20421;-79
2023/09/27 06:26:41;;;;;;;7.30;4.50;;;;;;;;;;10432220;28;20477;-84
2023/09/27 06:31:45;;;;;;;7.80;4.75;;;;;;;;;;10435727;28;20452;-80
2023/09/27 06:36:48;;;;;;;10.02;5.10;;;;;;;;;;10436225;28;20867;-80
2023/09/27 06:41:52;;;;;;;8.47;4.70;;;;;;;;;;10433435;28;20845;-80
2023/09/27 06:46:54;;;;;;;8.07;4.57;;;;;;;;;;10439485;28;20890;-81
2023/09/27 06:51:57;;;;;;;11.23;4.70;;;;;;;;;;10438628;28;20595;-81
2023/09/27 06:57:01;;;;;;;8.10;4.90;;;;;;;;;;10438562;28;20431;-81
2023/09/27 07:02:05;;;;;;;11.35;5.32;;;;;;;;;;10442503;28;20455;-80
2023/09/27 07:07:08;;;;;;;8.27;5.30;;;;;;;;;;10436210;28;21061;-79
2023/09/27 07:12:12;;;;;;;8.47;6.00;;;;;;;;;;10444251;28;20963;-81
2023/09/27 07:17:15;;;;;;;11.38;5.85;;;;;;;;;;10438335;28;20442;-80
2023/09/27 07:22:19;;;;;;;9.73;6.20;;;;;;;;;;10443660;28;20435;-80
2023/09/27 07:27:22;;;;;;;10.57;6.72;;;;;;;;;;10443712;28;20902;-81
2023/09/27 07:32:25;;;;;;;11.57;7.37;;;;;;;;;;10434452;28;20460;-79
2023/09/27 07:37:29;;;;;;;8.38;6.22;;;;;;;;;;10438971;28;20528;-80
2023/09/27 07:42:33;;;;;;;10.73;6.53;;;;;;;;;;10455879;28;20448;-81
2023/09/27 07:47:35;;;;;;;8.82;6.95;;;;;;;;;;10436965;28;20431;-80
2023/09/27 07:52:38;;;;;;;8.57;6.30;;;;;;;;;;10441920;28;20452;-80
2023/09/27 07:57:45;;;;;;;12.48;7.28;;;;;;;;;;10445040;28;20855;-81
2023/09/27 08:02:50;;;;;;;8.87;7.07;;;;;;;;;;10440333;28;20930;-81
2023/09/27 08:07:54;;;;;;;10.25;6.63;;;;;;;;;;10435086;28;20533;-82
2023/09/27 08:12:58;;;;;;;9.30;6.55;;;;;;;;;;10442838;28;20425;-80
2023/09/27 08:18:02;;;;;;;8.80;6.20;;;;;;;;;;10439884;28;21017;-79
2023/09/27 08:23:05;;;;;;;8.80;6.60;;;;;;;;;;10432583;28;20430;-80
2023/09/27 08:28:09;;;;;;;13.63;7.07;;;;;;;;;;10438411;28;20461;-80
2023/09/27 08:33:12;;;;;;;7.90;6.60;;;;;;;;;;10436384;28;20815;-81
2023/09/27 08:38:15;;;;;;;11.83;6.30;;;;;;;;;;10435433;28;21115;-94
2023/09/27 08:43:24;;;;;;;7.13;6.05;;;;;;;;;;10443083;28;21185;-83
2023/09/27 08:48:29;;;;;;;7.78;6.22;;;;;;;;;;10451864;28;20461;-82
2023/09/27 08:53:46;;;;;;;7.90;6.15;;;;;;;;;;10472768;28;20434;-83
2023/09/27 08:59:01;;;;;;;8.80;6.90;;;;;;;;;;10477979;28;20420;-84
2023/09/27 09:04:18;;;;;;;9.33;6.73;;;;;;;;;;10456608;28;20946;-83
2023/09/27 09:09:45;;;;;;;8.80;6.75;;;;;;;;;;10477236;28;20424;-82
2023/09/27 09:14:54;;;;;;;10.07;7.30;;;;;;;;;;10499809;28;20524;-82
2023/09/27 09:20:15;;;;;;;11.63;7.80;;;;;;;;;;10516898;28;20425;-81
2023/09/27 09:25:27;;;;;;;9.88;8.07;;;;;;;;;;10490405;28;20414;-81
2023/09/27 09:30:39;;;;;;;11.67;8.87;;;;;;;;;;10500446;28;20434;-81
2023/09/27 09:35:51;;;;;;;11.30;8.30;;;;;;;;;;10517445;28;20428;-82
2023/09/27 09:41:05;;;;;;;10.90;8.07;;;;;;;;;;10498681;28;20428;-82
2023/09/27 09:46:27;;;;;;;10.85;8.25;;;;;;;;;;10519135;28;20427;-80
2023/09/27 09:51:44;;;;;;;12.13;9.18;;;;;;;;;;10532570;27;20440;-81
2023/09/27 09:56:55;;;;;;;14.27;10.18;;;;;;;;;;10507954;28;20779;-81
2023/09/27 10:02:21;;;;;;;14.02;9.90;;;;;;;;;;10501274;28;20492;-80
2023/09/27 10:07:30;;;;;;;12.73;9.43;;;;;;;;;;10497758;28;20508;-81
2023/09/27 10:12:44;;;;;;;15.90;10.10;;;;;;;;;;10524356;27;20430;-83
2023/09/27 10:18:18;;;;;;;12.90;9.43;;;;;;;;;;10491434;28;20495;-83
2023/09/27 10:23:30;;;;;;;13.23;10.67;;;;;;;;;;10507003;28;20855;-83
2023/09/27 10:28:55;;;;;;;12.45;9.57;;;;;;;;;;10512474;28;20417;-82
2023/09/27 10:34:38;;;;;;;12.97;8.90;;;;;;;;;;10493267;28;20434;-84
2023/09/27 10:46:04;;;;;;;13.18;8.40;;;;;;;;;;10512109;28;20902;-86
2023/09/27 10:51:19;;;;;;;11.13;8.53;;;;;;;;;;10516450;28;20942;-87
2023/09/27 10:56:34;;;;;;;10.77;8.10;;;;;;;;;;10515384;28;21099;-84
2023/09/27 11:01:50;;;;;;;15.43;9.60;;;;;;;;;;10501891;28;20434;-85
2023/09/27 11:07:04;;;;;;;9.88;8.57;;;;;;;;;;10521456;28;20897;-86
2023/09/27 11:17:56;;;;;;;10.75;8.50;;;;;;;;;;10512728;28;20478;-85
2023/09/27 11:23:19;;;;;;;10.60;8.10;;;;;;;;;;10519783;28;20496;-85
2023/09/27 11:34:10;;;;;;;11.27;8.90;;;;;;;;;;10518049;28;20857;-84
2023/09/27 11:39:29;;;;;;;10.90;8.05;;;;;;;;;;10482547;28;20474;-85
2023/09/27 11:44:41;;;;;;;11.55;8.68;;;;;;;;;;10522235;28;20428;-85
2023/09/27 11:49:51;;;;;;;11.90;9.70;;;;;;;;;;10528044;28;20426;-83
2023/09/27 11:54:56;;;;;;;11.48;8.50;;;;;;;;;;10511235;28;20416;-86
2023/09/27 12:00:08;;;;;;;9.70;7.80;;;;;;;;;;10531468;28;20922;-84
2023/09/27 12:05:20;;;;;;;11.03;7.90;;;;;;;;;;10522561;28;20421;-86
2023/09/27 12:10:26;;;;;;;8.57;6.00;;;;;;;;;;10503112;28;20524;-86
2023/09/27 12:15:34;;;;;;;7.60;5.75;;;;;;;;;;10506430;28;21045;-83
2023/09/27 12:20:39;;;;;;;6.40;4.72;;;;;;;;;;10516387;28;20427;-85
2023/09/27 12:25:52;;;;;;;6.50;4.60;;;;;;;;;;10502062;28;20505;-85
2023/09/27 12:31:22;;;;;;;5.55;4.00;;;;;;;;;;10520502;28;21083;-86
2023/09/27 12:36:30;;;;;;;7.00;4.40;;;;;;;;;;10513562;28;20938;-85
2023/09/27 12:41:36;;;;;;;5.90;4.10;;;;;;;;;;10520816;28;20439;-85
2023/09/27 12:47:14;;;;;;;6.87;3.93;;;;;;;;;;10519272;28;20907;-85
2023/09/27 12:57:49;;;;;;;5.67;3.97;;;;;;;;;;10516886;28;20415;-85
2023/09/27 13:03:08;;;;;;;9.05;4.80;;;;;;;;;;10505818;28;20433;-84
2023/09/27 13:08:20;;;;;;;5.20;3.50;;;;;;;;;;10517519;28;20441;-83
2023/09/27 13:13:41;;;;;;;7.32;4.03;;;;;;;;;;10522728;28;20433;-83
2023/09/27 13:18:53;;;;;;;4.80;3.45;;;;;;;;;;10517625;28;20531;-83
2023/09/27 13:24:18;;;;;;;5.00;3.35;;;;;;;;;;10515560;28;20433;-83
2023/09/27 13:29:27;;;;;;;7.82;3.30;;;;;;;;;;10509678;28;20421;-84
2023/09/27 13:35:06;;;;;;;4.15;3.00;;;;;;;;;;10493095;28;20968;-84
2023/09/27 13:40:15;;;;;;;4.45;2.80;;;;;;;;;;10499150;28;20519;-85
2023/09/27 13:45:26;;;;;;;4.70;3.20;;;;;;;;;;10495237;28;20435;-83
2023/09/27 13:50:42;;;;;;;4.53;2.90;;;;;;;;;;10504067;28;20446;-84
2023/09/27 13:55:53;;;;;;;4.07;3.00;;;;;;;;;;10514877;28;21002;-84
2023/09/27 14:01:00;;;;;;;3.60;2.70;;;;;;;;;;10520335;28;21083;-84
2023/09/27 14:06:10;;;;;;;4.93;2.90;;;;;;;;;;10514620;28;20740;-83
2023/09/27 14:11:20;;;;;;;4.90;2.90;;;;;;;;;;10514261;28;20426;-81
2023/09/27 14:16:38;;;;;;;6.40;2.97;;;;;;;;;;10517230;28;20861;-82
2023/09/27 14:21:45;;;;;;;4.65;2.78;;;;;;;;;;10497706;28;20432;-82
2023/09/27 14:26:52;;;;;;;4.97;2.70;;;;;;;;;;10493069;28;20433;-82
2023/09/27 14:32:28;;;;;;;5.97;2.87;;;;;;;;;;10511622;28;21950;-84
2023/09/27 14:37:35;;;;;;;5.50;3.03;;;;;;;;;;10510915;28;20424;-82
2023/09/27 14:48:18;;;;;;;5.68;2.90;;;;;;;;;;10518354;28;20436;-83
2023/09/27 14:53:28;;;;;;;4.93;3.33;;;;;;;;;;10513235;28;20508;-84
2023/09/27 14:58:49;;;;;;;5.78;3.33;;;;;;;;;;10519848;28;20436;-83
2023/09/27 15:04:08;;;;;;;8.48;3.72;;;;;;;;;;10503854;28;20582;-84
2023/09/27 15:09:15;;;;;;;5.47;3.17;;;;;;;;;;10513706;28;20457;-83
2023/09/27 15:14:38;;;;;;;5.85;3.08;;;;;;;;;;10498589;28;20990;-82
2023/09/27 15:19:49;;;;;;;6.50;3.15;;;;;;;;;;10503986;28;20436;-82
2023/09/27 15:25:19;;;;;;;5.03;2.85;;;;;;;;;;10502263;28;20423;-82
2023/09/27 15:30:33;;;;;;;6.40;3.10;;;;;;;;;;10521652;28;20517;-84
2023/09/27 15:35:39;;;;;;;4.40;3.08;;;;;;;;;;10505031;28;20433;-83
2023/09/27 15:40:51;;;;;;;4.63;3.20;;;;;;;;;;10517265;28;21010;-82
2023/09/27 15:46:35;;;;;;;6.67;3.47;;;;;;;;;;10501666;28;21141;-84
2023/09/27 15:52:02;;;;;;;6.93;3.60;;;;;;;;;;10525827;28;20418;-82
2023/09/27 15:57:17;;;;;;;6.47;3.67;;;;;;;;;;10501679;28;20418;-83
2023/09/27 16:02:47;;;;;;;9.73;4.37;;;;;;;;;;10523759;28;20448;-83
2023/09/27 16:07:57;;;;;;;7.93;4.30;;;;;;;;;;10520476;28;20429;-83
2023/09/27 16:18:46;;;;;;;6.90;4.35;;;;;;;;;;10519703;28;20459;-83
2023/09/27 16:23:59;;;;;;;10.07;4.95;;;;;;;;;;10504408;28;20421;-84
2023/09/27 16:29:08;;;;;;;9.68;5.03;;;;;;;;;;10516820;28;20437;-84
2023/09/27 16:34:15;;;;;;;10.48;5.25;;;;;;;;;;10503670;28;20445;-83
2023/09/27 16:39:28;;;;;;;12.57;8.13;;;;;;;;;;10506544;28;20944;-83
2023/09/27 16:44:38;;;;;;;9.50;6.18;;;;;;;;;;10498203;28;20419;-83
2023/09/27 16:49:44;;;;;;;10.63;6.03;;;;;;;;;;10500968;28;20520;-84
2023/09/27 16:55:04;;;;;;;10.48;6.25;;;;;;;;;;10515729;28;20459;-84
2023/09/27 17:00:50;;;;;;;12.05;6.90;;;;;;;;;;10522624;28;20886;-82
2023/09/27 17:06:02;;;;;;;12.17;7.03;;;;;;;;;;10523197;28;20780;-83
2023/09/27 17:11:10;;;;;;;14.48;6.82;;;;;;;;;;10518871;28;20422;-82
2023/09/27 17:16:26;;;;;;;12.05;6.72;;;;;;;;;;10518443;28;20510;-83
2023/09/27 17:21:39;;;;;;;11.23;6.90;;;;;;;;;;10486313;28;20427;-83
2023/09/27 17:26:55;;;;;;;16.83;7.20;;;;;;;;;;10460538;28;20427;-82
2023/09/27 17:32:18;;;;;;;13.50;6.67;;;;;;;;;;10456930;28;20519;-83
2023/09/27 17:37:35;;;;;;;14.05;6.53;;;;;;;;;;10461466;28;20425;-83
2023/09/27 17:42:45;;;;;;;12.68;6.80;;;;;;;;;;10467981;28;20424;-83
2023/09/27 17:47:58;;;;;;;15.40;6.80;;;;;;;;;;10480928;28;20436;-82
2023/09/27 17:53:06;;;;;;;13.73;6.95;;;;;;;;;;10471801;28;20421;-83
2023/09/27 17:58:12;;;;;;;12.68;7.30;;;;;;;;;;10510004;28;20473;-83
2023/09/27 18:03:23;;;;;;;19.20;7.50;;;;;;;;;;10488446;28;20419;-83
2023/09/27 18:08:39;;;;;;;20.10;7.50;;;;;;;;;;10476673;28;20427;-82
2023/09/27 18:14:02;;;;;;;16.83;9.70;;;;;;;;;;10511784;28;20825;-83
2023/09/27 18:19:14;;;;;;;15.52;8.32;;;;;;;;;;10506814;28;20419;-82
2023/09/27 18:24:37;;;;;;;16.03;8.43;;;;;;;;;;10523222;28;20426;-82
2023/09/27 18:29:52;;;;;;;18.05;9.40;;;;;;;;;;10501737;28;20839;-82
2023/09/27 18:35:10;;;;;;;16.75;8.65;;;;;;;;;;10497284;28;20425;-83
2023/09/27 18:40:22;;;;;;;23.27;9.13;;;;;;;;;;10518464;28;20428;-82
2023/09/27 18:45:29;;;;;;;31.92;16.15;;;;;;;;;;10524002;28;20437;-82
2023/09/27 18:50:38;;;;;;;19.02;9.82;;;;;;;;;;10491217;28;20433;-82
2023/09/27 18:55:56;;;;;;;15.30;8.50;;;;;;;;;;10526887;28;20537;-81
2023/09/27 19:01:06;;;;;;;37.75;19.63;;;;;;;;;;10531187;28;20423;-81
2023/09/27 19:06:14;;;;;;;17.63;8.63;;;;;;;;;;10528773;28;20421;-80
2023/09/27 19:11:22;;;;;;;13.82;8.40;;;;;;;;;;10531330;28;20916;-82
2023/09/27 19:16:32;;;;;;;19.98;10.73;;;;;;;;;;10525663;28;20980;-82
2023/09/27 19:21:40;;;;;;;17.25;8.68;;;;;;;;;;10512877;28;20521;-82
2023/09/27 19:26:53;;;;;;;18.27;8.20;;;;;;;;;;10527296;28;20844;-83
2023/09/27 19:32:08;;;;;;;16.20;8.70;;;;;;;;;;10521227;28;20485;-82
2023/09/27 19:37:42;;;;;;;16.55;8.68;;;;;;;;;;10513175;28;20472;-79
2023/09/27 19:43:03;;;;;;;17.25;8.90;;;;;;;;;;10465974;28;20433;-82
2023/09/27 19:48:16;;;;;;;16.95;8.90;;;;;;;;;;10475917;28;20451;-84
2023/09/27 19:53:26;;;;;;;18.60;9.88;;;;;;;;;;10522763;28;21138;-82
2023/09/27 19:58:31;;;;;;;18.98;10.20;;;;;;;;;;10524256;28;20426;-82
2023/09/27 20:03:47;;;;;;;14.93;9.02;;;;;;;;;;10508150;28;20414;-82
2023/09/27 20:08:52;;;;;;;17.52;9.27;;;;;;;;;;10525786;28;20457;-82
2023/09/27 20:19:31;;;;;;;16.55;9.60;;;;;;;;;;10525128;28;21013;-83
2023/09/27 20:24:37;;;;;;;16.10;9.60;;;;;;;;;;10528000;28;20483;-84
2023/09/27 20:29:44;;;;;;;16.35;9.85;;;;;;;;;;10528795;28;20433;-81
2023/09/27 20:35:06;;;;;;;17.13;9.65;;;;;;;;;;10523313;28;20464;-85
2023/09/27 20:40:28;;;;;;;17.20;9.67;;;;;;;;;;10549397;28;20479;-84
2023/09/27 20:45:38;;;;;;;18.80;10.03;;;;;;;;;;10560162;28;20465;-85
2023/09/27 20:50:56;;;;;;;17.35;9.95;;;;;;;;;;10530188;28;20521;-84
2023/09/27 20:56:10;;;;;;;19.37;10.33;;;;;;;;;;10525457;28;20466;-84
2023/09/27 21:01:37;;;;;;;16.60;10.05;;;;;;;;;;10526568;28;20426;-84
2023/09/27 21:06:45;;;;;;;19.77;11.03;;;;;;;;;;10523340;28;20889;-85
2023/09/27 21:12:01;;;;;;;18.35;10.95;;;;;;;;;;10503623;28;20638;-80
2023/09/27 21:17:10;;;;;;;18.93;10.90;;;;;;;;;;10509795;28;20547;-80
2023/09/27 21:22:35;;;;;;;19.92;11.30;;;;;;;;;;10521649;28;20485;-79
2023/09/27 21:27:42;;;;;;;19.95;11.70;;;;;;;;;;10506745;28;20473;-79
2023/09/27 21:32:53;;;;;;;18.93;11.10;;;;;;;;;;10522297;28;20537;-79
2023/09/27 21:38:08;;;;;;;18.27;11.13;;;;;;;;;;10515157;28;20442;-79
2023/09/27 21:43:21;;;;;;;22.77;12.07;;;;;;;;;;10517869;28;20959;-80
2023/09/27 21:48:28;;;;;;;19.50;12.05;;;;;;;;;;10522985;28;20469;-80
2023/09/27 21:53:42;;;;;;;19.33;11.67;;;;;;;;;;10520232;28;20429;-81
2023/09/27 21:58:49;;;;;;;20.45;11.48;;;;;;;;;;10490702;28;20431;-81
2023/09/27 22:04:07;;;;;;;23.75;12.10;;;;;;;;;;10499674;28;20491;-81
2023/09/27 22:09:14;;;;;;;19.93;11.43;;;;;;;;;;10519061;28;20437;-80
2023/09/27 22:14:29;;;;;;;20.37;11.60;;;;;;;;;;10525205;28;20438;-80
2023/09/27 22:19:43;;;;;;;19.75;11.50;;;;;;;;;;10513704;28;20433;-80
2023/09/27 22:25:00;;;;;;;20.27;11.70;;;;;;;;;;10461628;28;20445;-79
2023/09/27 22:30:14;;;;;;;23.48;11.80;;;;;;;;;;10460424;28;20936;-80
2023/09/27 22:35:30;;;;;;;20.90;12.07;;;;;;;;;;10479809;28;20476;-80
2023/09/27 22:46:37;;;;;;;21.70;12.50;;;;;;;;;;10482884;28;20436;-79
2023/09/27 22:51:50;;;;;;;21.38;12.43;;;;;;;;;;10480272;28;20518;-81
2023/09/27 22:56:59;;;;;;;25.80;13.40;;;;;;;;;;10477083;28;20942;-80
2023/09/27 23:02:12;;;;;;;22.03;12.60;;;;;;;;;;10465293;28;20437;-80
2023/09/27 23:07:32;;;;;;;20.25;12.18;;;;;;;;;;10481084;28;20419;-79
2023/09/27 23:12:49;;;;;;;21.33;12.47;;;;;;;;;;10474201;28;20587;-79
2023/09/27 23:18:13;;;;;;;20.67;11.90;;;;;;;;;;10452073;28;20435;-79
2023/09/27 23:23:46;;;;;;;20.20;12.40;;;;;;;;;;10463318;28;20432;-79
2023/09/27 23:40:14;;;;;;;20.40;11.30;;;;;;;;;;10479450;28;20427;-79
2023/09/27 23:45:21;;;;;;;21.03;11.50;;;;;;;;;;10500341;28;20495;-79
2023/09/27 23:50:36;;;;;;;20.03;11.50;;;;;;;;;;10529248;28;20433;-79
2023/09/27 23:55:42;;;;;;;22.33;12.40;;;;;;;;;;10508533;28;20475;-79
